sensor_id;sensor_type;location;lat;lon;timestamp;temperature;humidity
2721;DHT22;1368;49.484;11.112;2023-04-25T00:01:21;10.70;99.90
2721;DHT22;1368;49.484;11.112;2023-04-25T00:03:47;10.30;99.90
2721;DHT22;1368;49.484;11.112;2023-04-25T00:06:13;10.40;99.90
2721;DHT22;1368;49.484;11.112;2023-04-25T00:08:39;10.40;99.90
2721;DHT22;1368;49.484;11.112;2023-04-25T00:11:05;10.60;99.90
2721;DHT22;1368;49.484;11.112;2023-04-25T00:13:31;10.80;99.90
2721;DHT22;1368;49.484;11.112;2023-04-25T00:15:56;10.80;99.90
2721;DHT22;1368;49.484;11.112;2023-04-25T00:18:23;10.70;99.90
2721;DHT22;1368;49.484;11.112;2023-04-25T00:20:49;10.60;99.90
2721;DHT22;1368;49.484;11.112;2023-04-25T00:23:15;10.70;99.90
2721;DHT22;1368;49.484;11.112;2023-04-25T00:25:43;10.90;99.90
2721;DHT22;1368;49.484;11.112;2023-04-25T00:28:09;11.10;99.90
2721;DHT22;1368;49.484;11.112;2023-04-25T00:30:35;11.00;99.90
2721;DHT22;1368;49.484;11.112;2023-04-25T00:33:00;11.10;99.90
2721;DHT22;1368;49.484;11.112;2023-04-25T00:35:26;11.10;99.90
2721;DHT22;1368;49.484;11.112;2023-04-25T00:37:52;10.80;99.90
2721;DHT22;1368;49.484;11.112;2023-04-25T00:40:17;11.30;99.90
2721;DHT22;1368;49.484;11.112;2023-04-25T00:42:43;10.90;99.90
2721;DHT22;1368;49.484;11.112;2023-04-25T00:45:13;11.10;99.90
2721;DHT22;1368;49.484;11.112;2023-04-25T00:47:40;11.20;99.90
2721;DHT22;1368;49.484;11.112;2023-04-25T00:50:06;11.30;99.90
2721;DHT22;1368;49.484;11.112;2023-04-25T00:52:32;11.30;99.90
2721;DHT22;1368;49.484;11.112;2023-04-25T00:54:58;11.40;99.90
2721;DHT22;1368;49.484;11.112;2023-04-25T00:57:24;11.40;99.90
2721;DHT22;1368;49.484;11.112;2023-04-25T00:59:51;11.40;99.90
2721;DHT22;1368;49.484;11.112;2023-04-25T01:02:18;11.30;99.90
2721;DHT22;1368;49.484;11.112;2023-04-25T01:04:44;11.30;99.90
2721;DHT22;1368;49.484;11.112;2023-04-25T01:07:10;11.20;99.90
2721;DHT22;1368;49.484;11.112;2023-04-25T01:09:36;11.00;99.90
2721;DHT22;1368;49.484;11.112;2023-04-25T01:12:02;11.10;99.90
2721;DHT22;1368;49.484;11.112;2023-04-25T01:14:28;11.20;99.90
2721;DHT22;1368;49.484;11.112;2023-04-25T01:16:55;11.30;99.90
2721;DHT22;1368;49.484;11.112;2023-04-25T01:19:21;11.30;99.90
2721;DHT22;1368;49.484;11.112;2023-04-25T01:21:46;11.40;99.90
2721;DHT22;1368;49.484;11.112;2023-04-25T01:24:12;11.40;99.90
2721;DHT22;1368;49.484;11.112;2023-04-25T01:26:39;11.50;99.90
2721;DHT22;1368;49.484;11.112;2023-04-25T01:29:07;11.40;99.90
2721;DHT22;1368;49.484;11.112;2023-04-25T01:31:33;11.50;99.90
2721;DHT22;1368;49.484;11.112;2023-04-25T01:34:00;11.40;99.90
2721;DHT22;1368;49.484;11.112;2023-04-25T01:36:26;11.70;99.90
2721;DHT22;1368;49.484;11.112;2023-04-25T01:38:52;11.30;99.90
2721;DHT22;1368;49.484;11.112;2023-04-25T01:41:18;11.20;99.90
2721;DHT22;1368;49.484;11.112;2023-04-25T01:43:44;11.00;99.90
2721;DHT22;1368;49.484;11.112;2023-04-25T01:46:11;11.10;99.90
2721;DHT22;1368;49.484;11.112;2023-04-25T01:48:37;11.30;99.90
2721;DHT22;1368;49.484;11.112;2023-04-25T01:51:03;11.30;99.90
2721;DHT22;1368;49.484;11.112;2023-04-25T01:53:29;11.30;99.90
2721;DHT22;1368;49.484;11.112;2023-04-25T01:55:54;11.40;99.90
2721;DHT22;1368;49.484;11.112;2023-04-25T01:58:20;11.40;99.90
2721;DHT22;1368;49.484;11.112;2023-04-25T02:00:46;11.40;99.90
2721;DHT22;1368;49.484;11.112;2023-04-25T02:03:12;11.40;99.90
2721;DHT22;1368;49.484;11.112;2023-04-25T02:05:38;11.80;99.90
2721;DHT22;1368;49.484;11.112;2023-04-25T02:08:05;11.20;99.90
2721;DHT22;1368;49.484;11.112;2023-04-25T02:10:31;11.30;99.90
2721;DHT22;1368;49.484;11.112;2023-04-25T02:12:57;11.30;99.90
2721;DHT22;1368;49.484;11.112;2023-04-25T02:15:23;11.20;99.90
2721;DHT22;1368;49.484;11.112;2023-04-25T02:17:49;11.10;99.90
2721;DHT22;1368;49.484;11.112;2023-04-25T02:20:15;11.00;99.90
2721;DHT22;1368;49.484;11.112;2023-04-25T02:22:41;11.00;99.90
2721;DHT22;1368;49.484;11.112;2023-04-25T02:25:08;10.80;99.90
2721;DHT22;1368;49.484;11.112;2023-04-25T02:27:34;10.90;99.90
2721;DHT22;1368;49.484;11.112;2023-04-25T02:30:00;10.90;99.90
2721;DHT22;1368;49.484;11.112;2023-04-25T02:32:26;10.90;99.90
2721;DHT22;1368;49.484;11.112;2023-04-25T02:34:52;10.90;99.90
2721;DHT22;1368;49.484;11.112;2023-04-25T02:37:17;10.90;99.90
2721;DHT22;1368;49.484;11.112;2023-04-25T02:39:43;10.80;99.90
2721;DHT22;1368;49.484;11.112;2023-04-25T02:42:08;10.80;99.90
2721;DHT22;1368;49.484;11.112;2023-04-25T02:44:34;10.80;99.90
2721;DHT22;1368;49.484;11.112;2023-04-25T02:46:59;10.90;99.90
2721;DHT22;1368;49.484;11.112;2023-04-25T02:49:25;10.90;99.90
2721;DHT22;1368;49.484;11.112;2023-04-25T02:51:51;11.00;99.90
2721;DHT22;1368;49.484;11.112;2023-04-25T02:54:16;10.80;99.90
2721;DHT22;1368;49.484;11.112;2023-04-25T02:56:42;10.60;99.90
2721;DHT22;1368;49.484;11.112;2023-04-25T02:59:07;10.70;99.90
2721;DHT22;1368;49.484;11.112;2023-04-25T03:01:33;10.70;99.90
2721;DHT22;1368;49.484;11.112;2023-04-25T03:03:58;10.70;99.90
2721;DHT22;1368;49.484;11.112;2023-04-25T03:06:24;10.50;99.90
2721;DHT22;1368;49.484;11.112;2023-04-25T03:08:49;10.50;99.90
2721;DHT22;1368;49.484;11.112;2023-04-25T03:11:15;10.50;99.90
2721;DHT22;1368;49.484;11.112;2023-04-25T03:13:40;10.60;99.90
2721;DHT22;1368;49.484;11.112;2023-04-25T03:16:06;10.60;99.90
2721;DHT22;1368;49.484;11.112;2023-04-25T03:18:32;10.50;99.90
2721;DHT22;1368;49.484;11.112;2023-04-25T03:20:57;10.70;99.90
2721;DHT22;1368;49.484;11.112;2023-04-25T03:23:23;10.80;99.90
2721;DHT22;1368;49.484;11.112;2023-04-25T03:25:48;10.50;99.90
2721;DHT22;1368;49.484;11.112;2023-04-25T03:28:14;10.60;99.90
2721;DHT22;1368;49.484;11.112;2023-04-25T03:30:39;10.40;99.90
2721;DHT22;1368;49.484;11.112;2023-04-25T03:33:05;10.50;99.90
2721;DHT22;1368;49.484;11.112;2023-04-25T03:35:31;10.40;99.90
2721;DHT22;1368;49.484;11.112;2023-04-25T03:37:56;10.40;99.90
2721;DHT22;1368;49.484;11.112;2023-04-25T03:40:22;10.40;99.90
2721;DHT22;1368;49.484;11.112;2023-04-25T03:42:47;10.20;99.90
2721;DHT22;1368;49.484;11.112;2023-04-25T03:45:13;10.20;99.90
2721;DHT22;1368;49.484;11.112;2023-04-25T03:47:38;9.90;99.90
2721;DHT22;1368;49.484;11.112;2023-04-25T03:50:04;9.90;99.90
2721;DHT22;1368;49.484;11.112;2023-04-25T03:52:30;10.10;99.90
2721;DHT22;1368;49.484;11.112;2023-04-25T03:54:56;9.90;99.90
2721;DHT22;1368;49.484;11.112;2023-04-25T03:57:21;10.00;99.90
2721;DHT22;1368;49.484;11.112;2023-04-25T03:59:47;10.00;99.90
2721;DHT22;1368;49.484;11.112;2023-04-25T04:02:12;10.00;99.90
2721;DHT22;1368;49.484;11.112;2023-04-25T04:04:38;9.80;99.90
2721;DHT22;1368;49.484;11.112;2023-04-25T04:07:03;10.00;99.90
2721;DHT22;1368;49.484;11.112;2023-04-25T04:09:29;10.10;99.90
2721;DHT22;1368;49.484;11.112;2023-04-25T04:11:55;10.20;99.90
2721;DHT22;1368;49.484;11.112;2023-04-25T04:14:20;10.20;99.90
2721;DHT22;1368;49.484;11.112;2023-04-25T04:16:46;10.30;99.90
2721;DHT22;1368;49.484;11.112;2023-04-25T04:19:11;10.40;99.90
2721;DHT22;1368;49.484;11.112;2023-04-25T04:21:37;10.40;99.90
2721;DHT22;1368;49.484;11.112;2023-04-25T04:24:02;10.10;99.90
2721;DHT22;1368;49.484;11.112;2023-04-25T04:26:28;10.10;99.90
2721;DHT22;1368;49.484;11.112;2023-04-25T04:28:54;10.20;99.90
2721;DHT22;1368;49.484;11.112;2023-04-25T04:31:21;9.80;99.90
2721;DHT22;1368;49.484;11.112;2023-04-25T04:33:47;9.70;99.90
2721;DHT22;1368;49.484;11.112;2023-04-25T04:36:12;9.70;99.90
2721;DHT22;1368;49.484;11.112;2023-04-25T04:38:38;9.60;99.90
2721;DHT22;1368;49.484;11.112;2023-04-25T04:41:04;9.50;99.90
2721;DHT22;1368;49.484;11.112;2023-04-25T04:43:29;9.60;99.90
2721;DHT22;1368;49.484;11.112;2023-04-25T04:45:55;9.60;99.90
2721;DHT22;1368;49.484;11.112;2023-04-25T04:48:24;9.70;99.90
2721;DHT22;1368;49.484;11.112;2023-04-25T04:50:49;9.40;99.90
2721;DHT22;1368;49.484;11.112;2023-04-25T04:53:15;9.40;99.90
2721;DHT22;1368;49.484;11.112;2023-04-25T04:55:41;9.60;99.90
2721;DHT22;1368;49.484;11.112;2023-04-25T04:58:07;9.70;99.90
2721;DHT22;1368;49.484;11.112;2023-04-25T05:00:33;9.60;99.90
2721;DHT22;1368;49.484;11.112;2023-04-25T05:02:58;9.60;99.90
2721;DHT22;1368;49.484;11.112;2023-04-25T05:05:24;9.70;99.90
2721;DHT22;1368;49.484;11.112;2023-04-25T05:07:50;9.70;99.90
2721;DHT22;1368;49.484;11.112;2023-04-25T05:10:19;9.70;99.90
2721;DHT22;1368;49.484;11.112;2023-04-25T05:12:45;9.60;99.90
2721;DHT22;1368;49.484;11.112;2023-04-25T05:15:11;9.60;99.90
2721;DHT22;1368;49.484;11.112;2023-04-25T05:17:37;9.70;99.90
2721;DHT22;1368;49.484;11.112;2023-04-25T05:20:05;9.70;99.90
2721;DHT22;1368;49.484;11.112;2023-04-25T05:22:31;9.50;99.90
2721;DHT22;1368;49.484;11.112;2023-04-25T05:24:56;9.40;99.90
2721;DHT22;1368;49.484;11.112;2023-04-25T05:27:22;9.50;99.90
2721;DHT22;1368;49.484;11.112;2023-04-25T05:29:47;9.60;99.90
2721;DHT22;1368;49.484;11.112;2023-04-25T05:32:13;9.50;99.90
2721;DHT22;1368;49.484;11.112;2023-04-25T05:34:39;9.80;99.90
2721;DHT22;1368;49.484;11.112;2023-04-25T05:37:05;9.80;99.90
2721;DHT22;1368;49.484;11.112;2023-04-25T05:39:30;10.00;99.90
2721;DHT22;1368;49.484;11.112;2023-04-25T05:41:56;10.10;99.90
2721;DHT22;1368;49.484;11.112;2023-04-25T05:44:21;9.90;99.90
2721;DHT22;1368;49.484;11.112;2023-04-25T05:46:47;9.90;99.90
2721;DHT22;1368;49.484;11.112;2023-04-25T05:49:13;9.90;99.90
2721;DHT22;1368;49.484;11.112;2023-04-25T05:51:38;9.60;99.90
2721;DHT22;1368;49.484;11.112;2023-04-25T05:54:04;9.70;99.90
2721;DHT22;1368;49.484;11.112;2023-04-25T05:56:29;10.10;99.90
2721;DHT22;1368;49.484;11.112;2023-04-25T05:58:55;10.10;99.90
2721;DHT22;1368;49.484;11.112;2023-04-25T06:01:22;10.40;99.90
2721;DHT22;1368;49.484;11.112;2023-04-25T06:03:48;9.80;99.90
2721;DHT22;1368;49.484;11.112;2023-04-25T06:06:14;10.10;99.90
2721;DHT22;1368;49.484;11.112;2023-04-25T06:08:40;10.30;99.90
2721;DHT22;1368;49.484;11.112;2023-04-25T06:11:06;10.40;99.90
2721;DHT22;1368;49.484;11.112;2023-04-25T06:13:32;10.30;99.90
2721;DHT22;1368;49.484;11.112;2023-04-25T06:15:57;10.00;99.90
2721;DHT22;1368;49.484;11.112;2023-04-25T06:18:23;9.50;99.90
2721;DHT22;1368;49.484;11.112;2023-04-25T06:20:48;9.30;99.90
2721;DHT22;1368;49.484;11.112;2023-04-25T06:23:14;9.20;99.90
2721;DHT22;1368;49.484;11.112;2023-04-25T06:25:39;9.40;99.90
2721;DHT22;1368;49.484;11.112;2023-04-25T06:28:05;9.30;99.90
2721;DHT22;1368;49.484;11.112;2023-04-25T06:30:30;9.30;99.90
2721;DHT22;1368;49.484;11.112;2023-04-25T06:32:56;9.30;99.90
2721;DHT22;1368;49.484;11.112;2023-04-25T06:35:21;9.30;99.90
2721;DHT22;1368;49.484;11.112;2023-04-25T06:37:47;9.40;99.90
2721;DHT22;1368;49.484;11.112;2023-04-25T06:40:12;9.60;99.90
2721;DHT22;1368;49.484;11.112;2023-04-25T06:42:38;9.60;99.90
2721;DHT22;1368;49.484;11.112;2023-04-25T06:45:04;9.90;99.90
2721;DHT22;1368;49.484;11.112;2023-04-25T06:47:30;10.20;99.90
2721;DHT22;1368;49.484;11.112;2023-04-25T06:49:55;10.20;99.90
2721;DHT22;1368;49.484;11.112;2023-04-25T06:52:21;10.40;99.90
2721;DHT22;1368;49.484;11.112;2023-04-25T06:54:46;10.80;99.90
2721;DHT22;1368;49.484;11.112;2023-04-25T06:57:12;11.10;99.90
2721;DHT22;1368;49.484;11.112;2023-04-25T06:59:38;10.90;99.90
2721;DHT22;1368;49.484;11.112;2023-04-25T07:02:03;10.90;99.90
2721;DHT22;1368;49.484;11.112;2023-04-25T07:04:29;11.10;99.90
2721;DHT22;1368;49.484;11.112;2023-04-25T07:06:56;11.40;99.90
2721;DHT22;1368;49.484;11.112;2023-04-25T07:09:21;11.40;99.90
2721;DHT22;1368;49.484;11.112;2023-04-25T07:11:47;11.20;99.90
2721;DHT22;1368;49.484;11.112;2023-04-25T07:14:13;11.20;99.90
2721;DHT22;1368;49.484;11.112;2023-04-25T07:16:38;11.40;99.90
2721;DHT22;1368;49.484;11.112;2023-04-25T07:19:04;11.20;99.90
2721;DHT22;1368;49.484;11.112;2023-04-25T07:21:29;10.80;99.90
2721;DHT22;1368;49.484;11.112;2023-04-25T07:23:57;10.40;99.90
2721;DHT22;1368;49.484;11.112;2023-04-25T07:26:22;10.00;99.90
2721;DHT22;1368;49.484;11.112;2023-04-25T07:28:48;10.10;99.90
2721;DHT22;1368;49.484;11.112;2023-04-25T07:31:17;10.00;99.90
2721;DHT22;1368;49.484;11.112;2023-04-25T07:33:44;9.80;99.90
2721;DHT22;1368;49.484;11.112;2023-04-25T07:36:10;9.60;99.90
2721;DHT22;1368;49.484;11.112;2023-04-25T07:38:36;8.90;99.90
2721;DHT22;1368;49.484;11.112;2023-04-25T07:41:01;8.90;99.90
2721;DHT22;1368;49.484;11.112;2023-04-25T07:43:27;9.00;99.90
2721;DHT22;1368;49.484;11.112;2023-04-25T07:45:52;8.90;99.90
2721;DHT22;1368;49.484;11.112;2023-04-25T07:48:18;8.80;99.90
2721;DHT22;1368;49.484;11.112;2023-04-25T07:50:44;9.20;99.90
2721;DHT22;1368;49.484;11.112;2023-04-25T07:53:10;9.70;99.90
2721;DHT22;1368;49.484;11.112;2023-04-25T07:55:36;9.40;99.90
2721;DHT22;1368;49.484;11.112;2023-04-25T07:58:07;9.20;99.90
2721;DHT22;1368;49.484;11.112;2023-04-25T08:00:33;9.30;99.90
2721;DHT22;1368;49.484;11.112;2023-04-25T08:02:59;9.70;99.90
2721;DHT22;1368;49.484;11.112;2023-04-25T08:05:24;10.20;99.90
2721;DHT22;1368;49.484;11.112;2023-04-25T08:07:50;10.70;99.90
2721;DHT22;1368;49.484;11.112;2023-04-25T08:10:16;11.00;99.90
2721;DHT22;1368;49.484;11.112;2023-04-25T08:12:41;10.50;99.90
2721;DHT22;1368;49.484;11.112;2023-04-25T08:15:07;10.40;99.90
2721;DHT22;1368;49.484;11.112;2023-04-25T08:17:33;10.90;99.90
2721;DHT22;1368;49.484;11.112;2023-04-25T08:19:59;11.00;99.90
2721;DHT22;1368;49.484;11.112;2023-04-25T08:22:24;11.00;99.90
2721;DHT22;1368;49.484;11.112;2023-04-25T08:24:50;11.20;99.90
2721;DHT22;1368;49.484;11.112;2023-04-25T08:27:15;11.40;99.90
2721;DHT22;1368;49.484;11.112;2023-04-25T08:29:41;11.90;99.90
2721;DHT22;1368;49.484;11.112;2023-04-25T08:32:07;12.30;99.90
2721;DHT22;1368;49.484;11.112;2023-04-25T08:34:32;12.50;99.90
2721;DHT22;1368;49.484;11.112;2023-04-25T08:36:58;12.60;99.90
2721;DHT22;1368;49.484;11.112;2023-04-25T08:39:23;13.60;99.90
2721;DHT22;1368;49.484;11.112;2023-04-25T08:41:49;13.90;99.90
2721;DHT22;1368;49.484;11.112;2023-04-25T08:44:16;14.40;99.90
2721;DHT22;1368;49.484;11.112;2023-04-25T08:46:42;14.60;99.90
2721;DHT22;1368;49.484;11.112;2023-04-25T08:49:08;14.60;99.90
2721;DHT22;1368;49.484;11.112;2023-04-25T08:51:47;14.50;99.90
2721;DHT22;1368;49.484;11.112;2023-04-25T08:54:13;15.70;99.90
2721;DHT22;1368;49.484;11.112;2023-04-25T08:56:48;16.30;99.90
2721;DHT22;1368;49.484;11.112;2023-04-25T08:59:14;16.10;99.90
2721;DHT22;1368;49.484;11.112;2023-04-25T09:01:40;16.30;99.90
2721;DHT22;1368;49.484;11.112;2023-04-25T09:04:05;16.30;99.90
2721;DHT22;1368;49.484;11.112;2023-04-25T09:06:32;15.40;99.90
2721;DHT22;1368;49.484;11.112;2023-04-25T09:09:05;15.00;99.90
2721;DHT22;1368;49.484;11.112;2023-04-25T09:11:32;15.00;99.90
2721;DHT22;1368;49.484;11.112;2023-04-25T09:14:11;14.90;99.90
2721;DHT22;1368;49.484;11.112;2023-04-25T09:19:24;14.40;99.90
2721;DHT22;1368;49.484;11.112;2023-04-25T09:21:53;14.30;99.90
2721;DHT22;1368;49.484;11.112;2023-04-25T09:27:05;14.40;99.90
2721;DHT22;1368;49.484;11.112;2023-04-25T09:29:32;15.70;99.90
2721;DHT22;1368;49.484;11.112;2023-04-25T09:34:40;17.10;99.90
2721;DHT22;1368;49.484;11.112;2023-04-25T09:37:11;17.90;99.90
2721;DHT22;1368;49.484;11.112;2023-04-25T09:39:38;18.10;99.60
2721;DHT22;1368;49.484;11.112;2023-04-25T09:42:04;17.90;98.90
2721;DHT22;1368;49.484;11.112;2023-04-25T09:44:30;18.20;97.90
2721;DHT22;1368;49.484;11.112;2023-04-25T09:46:56;18.00;99.90
2721;DHT22;1368;49.484;11.112;2023-04-25T09:49:23;18.50;99.40
2721;DHT22;1368;49.484;11.112;2023-04-25T09:51:59;18.30;98.00
2721;DHT22;1368;49.484;11.112;2023-04-25T09:54:26;18.40;99.00
2721;DHT22;1368;49.484;11.112;2023-04-25T09:56:52;18.60;97.60
2721;DHT22;1368;49.484;11.112;2023-04-25T09:59:21;18.70;97.70
2721;DHT22;1368;49.484;11.112;2023-04-25T10:01:50;18.50;96.90
2721;DHT22;1368;49.484;11.112;2023-04-25T10:04:23;18.70;96.70
2721;DHT22;1368;49.484;11.112;2023-04-25T10:06:49;18.70;95.50
2721;DHT22;1368;49.484;11.112;2023-04-25T10:09:20;18.90;95.80
2721;DHT22;1368;49.484;11.112;2023-04-25T10:11:46;18.90;94.80
2721;DHT22;1368;49.484;11.112;2023-04-25T10:14:14;18.30;95.90
2721;DHT22;1368;49.484;11.112;2023-04-25T10:16:40;18.30;96.70
2721;DHT22;1368;49.484;11.112;2023-04-25T10:19:07;17.40;92.90
2721;DHT22;1368;49.484;11.112;2023-04-25T10:21:33;16.50;94.00
2721;DHT22;1368;49.484;11.112;2023-04-25T10:24:00;16.60;95.30
2721;DHT22;1368;49.484;11.112;2023-04-25T10:26:26;17.10;93.80
2721;DHT22;1368;49.484;11.112;2023-04-25T10:29:00;17.90;93.20
2721;DHT22;1368;49.484;11.112;2023-04-25T10:31:26;18.60;92.30
2721;DHT22;1368;49.484;11.112;2023-04-25T10:33:53;18.90;88.70
2721;DHT22;1368;49.484;11.112;2023-04-25T10:36:21;18.60;89.40
2721;DHT22;1368;49.484;11.112;2023-04-25T10:38:48;18.40;87.60
2721;DHT22;1368;49.484;11.112;2023-04-25T10:41:18;18.40;91.10
2721;DHT22;1368;49.484;11.112;2023-04-25T10:43:47;17.40;90.30
2721;DHT22;1368;49.484;11.112;2023-04-25T10:48:51;16.40;91.00
2721;DHT22;1368;49.484;11.112;2023-04-25T10:51:22;15.40;90.80
2721;DHT22;1368;49.484;11.112;2023-04-25T10:54:00;15.00;93.10
2721;DHT22;1368;49.484;11.112;2023-04-25T10:56:28;15.80;93.40
2721;DHT22;1368;49.484;11.112;2023-04-25T11:01:42;16.90;92.00
2721;DHT22;1368;49.484;11.112;2023-04-25T11:04:28;17.60;93.00
2721;DHT22;1368;49.484;11.112;2023-04-25T11:07:07;17.30;90.40
2721;DHT22;1368;49.484;11.112;2023-04-25T11:09:38;17.20;92.30
2721;DHT22;1368;49.484;11.112;2023-04-25T11:12:04;17.50;91.20
2721;DHT22;1368;49.484;11.112;2023-04-25T11:14:30;16.50;90.50
2721;DHT22;1368;49.484;11.112;2023-04-25T11:16:57;16.40;91.30
2721;DHT22;1368;49.484;11.112;2023-04-25T11:19:24;16.20;90.80
2721;DHT22;1368;49.484;11.112;2023-04-25T11:21:50;16.20;92.90
2721;DHT22;1368;49.484;11.112;2023-04-25T11:24:16;16.50;90.90
2721;DHT22;1368;49.484;11.112;2023-04-25T11:26:43;16.60;90.30
2721;DHT22;1368;49.484;11.112;2023-04-25T11:29:08;15.80;90.30
2721;DHT22;1368;49.484;11.112;2023-04-25T11:31:34;15.90;90.20
2721;DHT22;1368;49.484;11.112;2023-04-25T11:34:00;16.50;90.70
2721;DHT22;1368;49.484;11.112;2023-04-25T11:36:26;16.90;91.90
2721;DHT22;1368;49.484;11.112;2023-04-25T11:38:53;16.20;91.70
2721;DHT22;1368;49.484;11.112;2023-04-25T11:41:19;15.20;92.50
2721;DHT22;1368;49.484;11.112;2023-04-25T11:43:45;14.70;93.30
2721;DHT22;1368;49.484;11.112;2023-04-25T11:46:11;14.50;94.00
2721;DHT22;1368;49.484;11.112;2023-04-25T11:48:40;14.70;94.30
2721;DHT22;1368;49.484;11.112;2023-04-25T11:51:06;14.70;93.20
2721;DHT22;1368;49.484;11.112;2023-04-25T11:53:32;14.50;94.30
2721;DHT22;1368;49.484;11.112;2023-04-25T11:55:58;14.90;95.50
2721;DHT22;1368;49.484;11.112;2023-04-25T11:58:23;15.40;93.80
2721;DHT22;1368;49.484;11.112;2023-04-25T12:00:49;15.70;91.70
2721;DHT22;1368;49.484;11.112;2023-04-25T12:03:15;15.40;91.60
2721;DHT22;1368;49.484;11.112;2023-04-25T12:05:40;15.60;91.30
2721;DHT22;1368;49.484;11.112;2023-04-25T12:08:13;15.80;91.00
2721;DHT22;1368;49.484;11.112;2023-04-25T12:10:41;15.50;90.80
2721;DHT22;1368;49.484;11.112;2023-04-25T12:13:23;15.20;90.80
2721;DHT22;1368;49.484;11.112;2023-04-25T12:15:49;15.10;91.50
2721;DHT22;1368;49.484;11.112;2023-04-25T12:18:18;15.20;91.70
2721;DHT22;1368;49.484;11.112;2023-04-25T12:20:44;14.90;90.90
2721;DHT22;1368;49.484;11.112;2023-04-25T12:23:09;14.40;92.20
2721;DHT22;1368;49.484;11.112;2023-04-25T12:25:45;14.60;92.80
2721;DHT22;1368;49.484;11.112;2023-04-25T12:28:16;14.80;91.60
2721;DHT22;1368;49.484;11.112;2023-04-25T12:33:27;15.60;91.90
2721;DHT22;1368;49.484;11.112;2023-04-25T12:35:54;15.70;91.20
2721;DHT22;1368;49.484;11.112;2023-04-25T12:38:30;15.50;90.50
2721;DHT22;1368;49.484;11.112;2023-04-25T12:40:57;15.70;90.40
2721;DHT22;1368;49.484;11.112;2023-04-25T12:43:24;15.70;91.50
2721;DHT22;1368;49.484;11.112;2023-04-25T12:45:50;16.20;91.10
2721;DHT22;1368;49.484;11.112;2023-04-25T12:48:19;16.10;90.60
2721;DHT22;1368;49.484;11.112;2023-04-25T12:50:45;15.20;90.50
2721;DHT22;1368;49.484;11.112;2023-04-25T12:53:23;14.80;91.90
2721;DHT22;1368;49.484;11.112;2023-04-25T12:55:51;15.10;92.40
2721;DHT22;1368;49.484;11.112;2023-04-25T12:58:18;14.60;91.70
2721;DHT22;1368;49.484;11.112;2023-04-25T13:00:45;14.40;91.40
2721;DHT22;1368;49.484;11.112;2023-04-25T13:03:11;14.50;92.40
2721;DHT22;1368;49.484;11.112;2023-04-25T13:05:38;14.60;91.60
2721;DHT22;1368;49.484;11.112;2023-04-25T13:08:04;14.60;91.60
2721;DHT22;1368;49.484;11.112;2023-04-25T13:10:29;14.70;92.00
2721;DHT22;1368;49.484;11.112;2023-04-25T13:12:55;14.80;92.20
2721;DHT22;1368;49.484;11.112;2023-04-25T13:15:21;15.00;91.90
2721;DHT22;1368;49.484;11.112;2023-04-25T13:17:47;15.10;92.10
2721;DHT22;1368;49.484;11.112;2023-04-25T13:20:12;15.40;92.50
2721;DHT22;1368;49.484;11.112;2023-04-25T13:22:39;15.40;93.20
2721;DHT22;1368;49.484;11.112;2023-04-25T13:25:06;15.50;90.80
2721;DHT22;1368;49.484;11.112;2023-04-25T13:27:34;15.50;92.10
2721;DHT22;1368;49.484;11.112;2023-04-25T13:30:01;15.50;92.40
2721;DHT22;1368;49.484;11.112;2023-04-25T13:32:35;15.00;90.40
2721;DHT22;1368;49.484;11.112;2023-04-25T13:35:02;14.40;91.40
2721;DHT22;1368;49.484;11.112;2023-04-25T13:37:27;14.20;93.10
2721;DHT22;1368;49.484;11.112;2023-04-25T13:39:55;14.50;92.80
2721;DHT22;1368;49.484;11.112;2023-04-25T13:42:20;14.50;92.50
2721;DHT22;1368;49.484;11.112;2023-04-25T13:44:46;15.00;92.90
2721;DHT22;1368;49.484;11.112;2023-04-25T13:47:12;15.00;92.50
2721;DHT22;1368;49.484;11.112;2023-04-25T13:49:37;14.80;92.60
2721;DHT22;1368;49.484;11.112;2023-04-25T13:52:03;14.40;92.40
2721;DHT22;1368;49.484;11.112;2023-04-25T13:54:28;14.20;92.40
2721;DHT22;1368;49.484;11.112;2023-04-25T13:56:54;14.10;92.60
2721;DHT22;1368;49.484;11.112;2023-04-25T13:59:23;14.00;93.50
2721;DHT22;1368;49.484;11.112;2023-04-25T14:01:49;13.90;93.70
2721;DHT22;1368;49.484;11.112;2023-04-25T14:04:15;14.00;93.70
2721;DHT22;1368;49.484;11.112;2023-04-25T14:06:40;14.10;93.80
2721;DHT22;1368;49.484;11.112;2023-04-25T14:09:06;14.00;93.60
2721;DHT22;1368;49.484;11.112;2023-04-25T14:11:38;14.00;93.40
2721;DHT22;1368;49.484;11.112;2023-04-25T14:14:04;14.10;93.40
2721;DHT22;1368;49.484;11.112;2023-04-25T14:16:29;14.00;92.00
2721;DHT22;1368;49.484;11.112;2023-04-25T14:18:57;13.80;92.50
2721;DHT22;1368;49.484;11.112;2023-04-25T14:21:23;13.70;92.40
2721;DHT22;1368;49.484;11.112;2023-04-25T14:23:49;13.40;93.00
2721;DHT22;1368;49.484;11.112;2023-04-25T14:26:14;13.60;93.20
2721;DHT22;1368;49.484;11.112;2023-04-25T14:28:40;13.60;93.60
2721;DHT22;1368;49.484;11.112;2023-04-25T14:31:05;13.70;93.90
2721;DHT22;1368;49.484;11.112;2023-04-25T14:33:31;13.50;93.90
2721;DHT22;1368;49.484;11.112;2023-04-25T14:35:57;13.30;93.90
2721;DHT22;1368;49.484;11.112;2023-04-25T14:38:22;13.20;94.10
2721;DHT22;1368;49.484;11.112;2023-04-25T14:40:50;13.20;94.20
2721;DHT22;1368;49.484;11.112;2023-04-25T14:43:15;12.90;94.80
2721;DHT22;1368;49.484;11.112;2023-04-25T14:45:41;12.70;95.10
2721;DHT22;1368;49.484;11.112;2023-04-25T14:48:06;12.80;96.00
2721;DHT22;1368;49.484;11.112;2023-04-25T14:50:33;12.50;96.00
2721;DHT22;1368;49.484;11.112;2023-04-25T14:52:59;12.50;96.60
2721;DHT22;1368;49.484;11.112;2023-04-25T14:55:26;12.40;96.30
2721;DHT22;1368;49.484;11.112;2023-04-25T14:57:53;12.20;96.10
2721;DHT22;1368;49.484;11.112;2023-04-25T15:00:19;12.50;96.40
2721;DHT22;1368;49.484;11.112;2023-04-25T15:02:46;12.60;96.90
2721;DHT22;1368;49.484;11.112;2023-04-25T15:05:12;12.60;96.10
2721;DHT22;1368;49.484;11.112;2023-04-25T15:07:39;12.50;96.60
2721;DHT22;1368;49.484;11.112;2023-04-25T15:10:06;12.60;96.30
2721;DHT22;1368;49.484;11.112;2023-04-25T15:12:36;12.50;95.90
2721;DHT22;1368;49.484;11.112;2023-04-25T15:15:03;12.60;96.60
2721;DHT22;1368;49.484;11.112;2023-04-25T15:17:28;13.00;95.30
2721;DHT22;1368;49.484;11.112;2023-04-25T15:19:56;13.10;95.70
2721;DHT22;1368;49.484;11.112;2023-04-25T15:22:22;13.70;95.10
2721;DHT22;1368;49.484;11.112;2023-04-25T15:24:47;13.60;94.70
2721;DHT22;1368;49.484;11.112;2023-04-25T15:27:13;14.10;95.70
2721;DHT22;1368;49.484;11.112;2023-04-25T15:29:39;13.60;95.60
2721;DHT22;1368;49.484;11.112;2023-04-25T15:32:05;13.40;95.30
2721;DHT22;1368;49.484;11.112;2023-04-25T15:34:31;13.40;95.90
2721;DHT22;1368;49.484;11.112;2023-04-25T15:36:57;12.80;96.20
2721;DHT22;1368;49.484;11.112;2023-04-25T15:39:22;13.10;95.80
2721;DHT22;1368;49.484;11.112;2023-04-25T15:41:48;13.00;95.40
2721;DHT22;1368;49.484;11.112;2023-04-25T15:44:14;12.40;95.70
2721;DHT22;1368;49.484;11.112;2023-04-25T15:46:39;12.10;96.60
2721;DHT22;1368;49.484;11.112;2023-04-25T15:49:05;12.10;96.90
2721;DHT22;1368;49.484;11.112;2023-04-25T15:51:30;12.40;97.10
2721;DHT22;1368;49.484;11.112;2023-04-25T15:53:57;12.20;96.70
2721;DHT22;1368;49.484;11.112;2023-04-25T15:56:23;12.30;97.50
2721;DHT22;1368;49.484;11.112;2023-04-25T15:58:49;13.30;97.40